Time;durP1;ratioP1;P1;durP2;ratioP2;P2;SDS_P1;SDS_P2;PMS_P1;PMS_P2;Temp;Humidity;BMP_temperature;BMP_pressure;BME280_temperature;BME280_humidity;BME280_pressure;Samples;Min_cycle;Max_cycle;Signal;HPM_P1;HPM_P2
2022/07/26 00:01:45;;;;;;;59.47;3.60;;;;;;;;;;5094631;28;20450;-67
2022/07/26 00:04:13;;;;;;;59.47;3.40;;;;;;;;;;5094760;28;20442;-67
2022/07/26 00:06:40;;;;;;;62.00;3.80;;;;;;;;;;5094283;28;20534;-67
2022/07/26 00:09:07;;;;;;;59.20;3.40;;;;;;;;;;5094472;28;20849;-67
2022/07/26 00:11:34;;;;;;;61.53;3.30;;;;;;;;;;5094545;28;20473;-67
2022/07/26 00:14:02;;;;;;;60.30;3.93;;;;;;;;;;5095216;28;20519;-67
2022/07/26 00:16:29;;;;;;;61.50;3.80;;;;;;;;;;5095831;28;20813;-67
2022/07/26 00:18:56;;;;;;;59.57;3.50;;;;;;;;;;5094815;28;20534;-67
2022/07/26 00:21:25;;;;;;;65.13;4.17;;;;;;;;;;5095195;28;20495;-67
2022/07/26 00:23:52;;;;;;;59.80;3.73;;;;;;;;;;5094919;28;20893;-67
2022/07/26 00:26:19;;;;;;;60.13;3.10;;;;;;;;;;5094886;28;20473;-67
2022/07/26 00:28:46;;;;;;;58.73;3.07;;;;;;;;;;5094346;28;20574;-67
2022/07/26 00:31:14;;;;;;;60.57;3.87;;;;;;;;;;5094984;28;20474;-67
2022/07/26 00:33:41;;;;;;;61.30;3.30;;;;;;;;;;5094791;28;20456;-67
2022/07/26 00:36:08;;;;;;;60.17;3.80;;;;;;;;;;5094955;28;20948;-67
2022/07/26 00:38:37;;;;;;;59.07;3.60;;;;;;;;;;5093337;28;20509;-67
2022/07/26 00:41:04;;;;;;;62.87;3.40;;;;;;;;;;5094824;28;20469;-67
2022/07/26 00:43:31;;;;;;;61.47;3.20;;;;;;;;;;5094600;28;20569;-67
2022/07/26 00:45:59;;;;;;;59.50;3.07;;;;;;;;;;5095107;28;20463;-67
2022/07/26 00:48:26;;;;;;;59.50;3.63;;;;;;;;;;5093888;28;20445;-67
2022/07/26 00:50:54;;;;;;;59.37;4.07;;;;;;;;;;5093802;28;20468;-67
2022/07/26 00:53:21;;;;;;;61.50;3.80;;;;;;;;;;5094730;28;20441;-67
2022/07/26 00:55:50;;;;;;;63.67;3.50;;;;;;;;;;5095089;28;20548;-67
2022/07/26 00:58:17;;;;;;;59.57;3.60;;;;;;;;;;5094468;28;20460;-67
2022/07/26 01:00:44;;;;;;;59.70;3.60;;;;;;;;;;5094178;28;20915;-67
2022/07/26 01:03:12;;;;;;;59.47;3.30;;;;;;;;;;5093602;28;20453;-67
2022/07/26 01:05:39;;;;;;;60.73;3.37;;;;;;;;;;5093872;28;20440;-67
2022/07/26 01:08:06;;;;;;;59.50;3.30;;;;;;;;;;5094207;28;20805;-67
2022/07/26 01:10:33;;;;;;;59.40;3.60;;;;;;;;;;5091569;28;20919;-67
2022/07/26 01:13:02;;;;;;;59.80;3.73;;;;;;;;;;5092768;28;20485;-68
2022/07/26 01:15:29;;;;;;;58.70;3.10;;;;;;;;;;5092346;28;20445;-67
2022/07/26 01:17:56;;;;;;;59.73;4.73;;;;;;;;;;5092080;28;20454;-67
2022/07/26 01:20:23;;;;;;;62.10;3.70;;;;;;;;;;5091611;28;20464;-67
2022/07/26 01:22:52;;;;;;;65.57;4.00;;;;;;;;;;5092300;28;20821;-68
2022/07/26 01:25:28;;;;;;;64.20;3.67;;;;;;;;;;5091742;28;20458;-69
2022/07/26 01:27:55;;;;;;;59.17;3.40;;;;;;;;;;5091619;28;20450;-68
2022/07/26 01:30:22;;;;;;;60.00;3.70;;;;;;;;;;5090740;28;20876;-68
2022/07/26 01:32:50;;;;;;;59.47;3.70;;;;;;;;;;5090920;28;20447;-69
2022/07/26 01:35:17;;;;;;;63.63;4.40;;;;;;;;;;5091798;28;20446;-68
2022/07/26 01:37:44;;;;;;;63.30;4.43;;;;;;;;;;5091447;28;20446;-68
2022/07/26 01:40:13;;;;;;;59.60;3.97;;;;;;;;;;5091009;28;20469;-68
2022/07/26 01:42:40;;;;;;;61.00;4.33;;;;;;;;;;5086686;28;20453;-68
2022/07/26 01:45:07;;;;;;;60.00;3.97;;;;;;;;;;5091565;28;20449;-68
2022/07/26 01:47:35;;;;;;;60.60;4.10;;;;;;;;;;5091122;28;20442;-68
2022/07/26 01:50:02;;;;;;;60.70;4.50;;;;;;;;;;5090723;28;20478;-68
2022/07/26 01:52:29;;;;;;;60.60;4.43;;;;;;;;;;5090622;28;20939;-68
2022/07/26 01:54:56;;;;;;;59.73;4.10;;;;;;;;;;5091248;28;20446;-68
2022/07/26 01:57:25;;;;;;;62.23;4.10;;;;;;;;;;5091661;28;20905;-68
2022/07/26 01:59:52;;;;;;;60.27;4.00;;;;;;;;;;5090738;28;21015;-68
2022/07/26 02:02:19;;;;;;;60.37;4.97;;;;;;;;;;5091316;28;20448;-68
2022/07/26 02:04:58;;;;;;;60.40;4.53;;;;;;;;;;5091239;28;20446;-68
2022/07/26 02:07:26;;;;;;;60.07;4.00;;;;;;;;;;5091002;28;20446;-68
2022/07/26 02:09:53;;;;;;;59.80;3.97;;;;;;;;;;5090580;28;20553;-68
2022/07/26 02:12:20;;;;;;;61.63;4.43;;;;;;;;;;5090873;28;20940;-68
2022/07/26 02:14:48;;;;;;;60.67;3.90;;;;;;;;;;5089143;28;20454;-68
2022/07/26 02:17:16;;;;;;;63.87;4.43;;;;;;;;;;5091272;28;20446;-68
2022/07/26 02:19:43;;;;;;;60.50;4.00;;;;;;;;;;5090619;28;20536;-68
2022/07/26 02:22:10;;;;;;;59.77;3.90;;;;;;;;;;5091049;28;20442;-68
2022/07/26 02:24:37;;;;;;;61.17;4.27;;;;;;;;;;5090901;28;20448;-68
2022/07/26 02:27:05;;;;;;;60.90;3.93;;;;;;;;;;5094643;28;20442;-68
2022/07/26 02:29:32;;;;;;;61.10;4.53;;;;;;;;;;5094710;28;20446;-68
2022/07/26 02:32:01;;;;;;;60.10;4.23;;;;;;;;;;5094153;28;20454;-68
2022/07/26 02:34:28;;;;;;;61.83;4.37;;;;;;;;;;5094977;28;20932;-68
2022/07/26 02:36:55;;;;;;;60.47;4.53;;;;;;;;;;5094862;28;20954;-68
2022/07/26 02:39:26;;;;;;;59.87;4.10;;;;;;;;;;5094512;28;20481;-68
2022/07/26 02:41:53;;;;;;;61.20;4.53;;;;;;;;;;5095023;28;20541;-68
2022/07/26 02:44:20;;;;;;;62.13;4.43;;;;;;;;;;5094674;28;20496;-69
2022/07/26 02:46:48;;;;;;;60.43;4.00;;;;;;;;;;5092130;28;20448;-69
2022/07/26 02:49:16;;;;;;;59.83;3.90;;;;;;;;;;5093838;28;20819;-68
2022/07/26 02:51:43;;;;;;;61.00;4.00;;;;;;;;;;5094061;28;20457;-68
2022/07/26 02:54:10;;;;;;;61.30;3.70;;;;;;;;;;5094389;28;20944;-68
2022/07/26 02:56:37;;;;;;;60.67;4.30;;;;;;;;;;5094454;28;20446;-68
2022/07/26 02:59:05;;;;;;;60.00;3.87;;;;;;;;;;5094024;28;20462;-68
2022/07/26 03:01:34;;;;;;;60.97;3.87;;;;;;;;;;5093659;28;20478;-68
2022/07/26 03:04:01;;;;;;;60.40;4.30;;;;;;;;;;5094689;28;20455;-68
2022/07/26 03:06:29;;;;;;;60.60;4.10;;;;;;;;;;5094403;28;20533;-68
2022/07/26 03:08:56;;;;;;;61.43;4.10;;;;;;;;;;5093905;28;20817;-68
2022/07/26 03:11:23;;;;;;;62.60;4.23;;;;;;;;;;5093760;28;20477;-68
2022/07/26 03:13:51;;;;;;;60.40;4.23;;;;;;;;;;5093949;28;20446;-68
2022/07/26 03:16:18;;;;;;;61.20;4.17;;;;;;;;;;5093798;28;20958;-68
2022/07/26 03:18:45;;;;;;;61.70;3.90;;;;;;;;;;5092202;28;20457;-68
2022/07/26 03:21:12;;;;;;;60.40;4.30;;;;;;;;;;5093816;28;20482;-68
2022/07/26 03:23:40;;;;;;;62.67;3.87;;;;;;;;;;5094158;28;20447;-68
2022/07/26 03:26:08;;;;;;;60.40;4.10;;;;;;;;;;5093929;28;20451;-68
2022/07/26 03:28:35;;;;;;;59.43;3.70;;;;;;;;;;5093234;28;20504;-68
2022/07/26 03:31:03;;;;;;;59.70;4.47;;;;;;;;;;5093464;28;20466;-68
2022/07/26 03:33:30;;;;;;;59.97;3.80;;;;;;;;;;5093606;28;20453;-68
2022/07/26 03:35:57;;;;;;;60.67;4.60;;;;;;;;;;5093298;28;20453;-68
2022/07/26 03:38:24;;;;;;;60.00;4.40;;;;;;;;;;5093774;28;21039;-68
2022/07/26 03:40:53;;;;;;;61.20;4.40;;;;;;;;;;5093236;28;20482;-68
2022/07/26 03:43:20;;;;;;;59.70;3.87;;;;;;;;;;5093562;28;20446;-68
2022/07/26 03:45:47;;;;;;;60.30;4.33;;;;;;;;;;5093762;28;20819;-68
2022/07/26 03:48:14;;;;;;;59.93;3.90;;;;;;;;;;5093521;28;20459;-68
2022/07/26 03:50:41;;;;;;;60.90;4.23;;;;;;;;;;5091242;28;20466;-68
2022/07/26 03:53:09;;;;;;;60.37;4.30;;;;;;;;;;5092588;28;20813;-68
2022/07/26 03:58:22;;;;;;;60.17;4.50;;;;;;;;;;5093226;28;20437;-68
2022/07/26 04:00:50;;;;;;;60.60;4.40;;;;;;;;;;5093059;28;20822;-68
2022/07/26 04:03:17;;;;;;;59.53;4.17;;;;;;;;;;5093356;28;20442;-68
2022/07/26 04:05:44;;;;;;;60.13;3.80;;;;;;;;;;5093303;28;20446;-68
2022/07/26 04:08:11;;;;;;;61.87;4.50;;;;;;;;;;5092623;28;20446;-68
2022/07/26 04:10:38;;;;;;;63.03;5.10;;;;;;;;;;5093057;28;20473;-68
2022/07/26 04:13:05;;;;;;;61.17;4.63;;;;;;;;;;5092307;28;20798;-68
2022/07/26 04:15:34;;;;;;;61.97;4.50;;;;;;;;;;5092811;28;20446;-68
2022/07/26 04:18:01;;;;;;;59.90;4.10;;;;;;;;;;5092904;28;20452;-68
2022/07/26 04:20:28;;;;;;;60.60;4.73;;;;;;;;;;5092379;28;20486;-68
2022/07/26 04:22:55;;;;;;;60.20;4.43;;;;;;;;;;5090731;28;20454;-68
2022/07/26 04:25:22;;;;;;;60.93;4.37;;;;;;;;;;5093036;28;20457;-68
2022/07/26 04:27:49;;;;;;;61.37;4.67;;;;;;;;;;5092631;28;20451;-68
2022/07/26 04:30:17;;;;;;;61.40;4.97;;;;;;;;;;5091857;28;21005;-68
2022/07/26 04:32:45;;;;;;;61.50;5.00;;;;;;;;;;5092241;28;20453;-68
2022/07/26 04:35:13;;;;;;;60.63;4.80;;;;;;;;;;5092382;28;20449;-68
2022/07/26 04:37:41;;;;;;;60.57;4.20;;;;;;;;;;5092210;28;20485;-68
2022/07/26 04:40:09;;;;;;;61.27;4.90;;;;;;;;;;5092286;28;20831;-68
2022/07/26 04:42:36;;;;;;;59.90;3.87;;;;;;;;;;5092499;28;20960;-68
2022/07/26 04:45:04;;;;;;;61.90;4.23;;;;;;;;;;5092698;28;20800;-68
2022/07/26 04:47:31;;;;;;;61.67;4.07;;;;;;;;;;5092287;28;20871;-68
2022/07/26 04:49:59;;;;;;;63.80;5.00;;;;;;;;;;5091262;28;20481;-68
2022/07/26 04:52:26;;;;;;;65.87;4.63;;;;;;;;;;5091834;28;20446;-68
2022/07/26 04:54:53;;;;;;;60.37;4.13;;;;;;;;;;5089837;28;20976;-68
2022/07/26 04:57:20;;;;;;;61.50;3.90;;;;;;;;;;5092083;28;20446;-68
2022/07/26 04:59:48;;;;;;;60.53;4.30;;;;;;;;;;5091564;28;20482;-68
2022/07/26 05:02:15;;;;;;;61.20;4.13;;;;;;;;;;5092021;28;20521;-68
2022/07/26 05:04:42;;;;;;;61.90;4.30;;;;;;;;;;5091928;28;20457;-68
2022/07/26 05:07:10;;;;;;;59.90;4.20;;;;;;;;;;5092289;28;20497;-68
2022/07/26 05:09:38;;;;;;;60.17;4.23;;;;;;;;;;5091179;28;20472;-68
2022/07/26 05:12:05;;;;;;;60.67;4.20;;;;;;;;;;5091719;28;20453;-68
2022/07/26 05:14:32;;;;;;;60.27;4.60;;;;;;;;;;5091260;28;20434;-68
2022/07/26 05:16:59;;;;;;;64.43;3.87;;;;;;;;;;5091446;28;20457;-68
2022/07/26 05:19:26;;;;;;;63.40;5.00;;;;;;;;;;5091664;28;20447;-68
2022/07/26 05:21:53;;;;;;;60.97;4.97;;;;;;;;;;5091836;28;20482;-68
2022/07/26 05:24:22;;;;;;;61.53;5.00;;;;;;;;;;5091726;28;20478;-68
2022/07/26 05:26:49;;;;;;;61.03;4.30;;;;;;;;;;5089970;28;20442;-68
2022/07/26 05:29:16;;;;;;;61.63;5.20;;;;;;;;;;5091024;28;20450;-68
2022/07/26 05:31:43;;;;;;;60.90;4.33;;;;;;;;;;5092063;28;20449;-68
2022/07/26 05:34:10;;;;;;;59.80;4.00;;;;;;;;;;5091208;28;20476;-68
2022/07/26 05:36:37;;;;;;;60.67;3.90;;;;;;;;;;5091107;28;20442;-68
2022/07/26 05:39:05;;;;;;;61.37;5.63;;;;;;;;;;5091503;28;20450;-68
2022/07/26 05:41:33;;;;;;;60.47;4.43;;;;;;;;;;5091620;28;20482;-68
2022/07/26 05:44:00;;;;;;;62.93;4.70;;;;;;;;;;5091338;28;20453;-68
2022/07/26 05:46:27;;;;;;;61.00;4.53;;;;;;;;;;5091488;28;20493;-68
2022/07/26 05:48:55;;;;;;;60.93;4.20;;;;;;;;;;5091025;28;20453;-68
2022/07/26 05:51:22;;;;;;;59.57;3.90;;;;;;;;;;5091466;28;20489;-68
2022/07/26 05:53:49;;;;;;;59.80;3.90;;;;;;;;;;5091105;28;20446;-68
2022/07/26 05:56:16;;;;;;;59.27;3.17;;;;;;;;;;5091125;28;20878;-68
2022/07/26 05:58:44;;;;;;;58.83;3.20;;;;;;;;;;5089270;28;20460;-68
2022/07/26 06:01:12;;;;;;;61.97;4.20;;;;;;;;;;5093418;28;20489;-68
2022/07/26 06:03:39;;;;;;;59.40;3.93;;;;;;;;;;5095441;28;20456;-68
2022/07/26 06:06:06;;;;;;;60.30;3.70;;;;;;;;;;5095753;28;20915;-68
2022/07/26 06:08:34;;;;;;;61.30;3.90;;;;;;;;;;5095190;28;20452;-68
2022/07/26 06:11:01;;;;;;;59.30;3.40;;;;;;;;;;5095091;28;20469;-68
2022/07/26 06:13:28;;;;;;;61.70;3.67;;;;;;;;;;5095013;28;20837;-69
2022/07/26 06:15:56;;;;;;;60.33;4.00;;;;;;;;;;5095303;28;20537;-68
2022/07/26 06:18:24;;;;;;;60.00;3.70;;;;;;;;;;5095014;28;20476;-68
2022/07/26 06:20:51;;;;;;;60.67;3.53;;;;;;;;;;5094555;28;20519;-68
2022/07/26 06:23:18;;;;;;;61.70;4.10;;;;;;;;;;5095498;28;20921;-69
2022/07/26 06:25:45;;;;;;;59.40;3.87;;;;;;;;;;5094989;28;20481;-68
2022/07/26 06:28:12;;;;;;;60.27;3.70;;;;;;;;;;5095155;28;20529;-68
2022/07/26 06:30:40;;;;;;;59.87;3.60;;;;;;;;;;5092820;28;20818;-68
2022/07/26 06:33:09;;;;;;;59.90;4.20;;;;;;;;;;5095157;28;20537;-68
2022/07/26 06:35:37;;;;;;;62.60;3.60;;;;;;;;;;5094812;28;20472;-68
2022/07/26 06:38:05;;;;;;;60.83;4.20;;;;;;;;;;5094847;28;20442;-68
2022/07/26 06:40:32;;;;;;;59.90;4.07;;;;;;;;;;5094122;28;20477;-68
2022/07/26 06:43:00;;;;;;;60.10;3.93;;;;;;;;;;5095116;28;20449;-68
2022/07/26 06:45:27;;;;;;;59.20;3.50;;;;;;;;;;5095009;28;20452;-68
2022/07/26 06:47:54;;;;;;;61.00;3.97;;;;;;;;;;5094782;28;20572;-68
2022/07/26 06:50:23;;;;;;;59.87;3.60;;;;;;;;;;5094531;28;20844;-68
2022/07/26 06:52:50;;;;;;;60.87;3.63;;;;;;;;;;5094524;28;20820;-68
2022/07/26 06:55:17;;;;;;;61.63;3.97;;;;;;;;;;5094210;28;20454;-68
2022/07/26 06:57:44;;;;;;;61.40;3.70;;;;;;;;;;5094600;28;20462;-68
2022/07/26 07:00:12;;;;;;;62.00;4.17;;;;;;;;;;5094265;28;20556;-68
2022/07/26 07:02:39;;;;;;;59.30;3.30;;;;;;;;;;5092157;28;20922;-68
2022/07/26 07:05:07;;;;;;;60.00;3.40;;;;;;;;;;5094568;28;20453;-68
2022/07/26 07:07:37;;;;;;;58.93;3.20;;;;;;;;;;5094283;28;20439;-68
2022/07/26 07:10:04;;;;;;;60.30;4.20;;;;;;;;;;5094444;28;20458;-68
2022/07/26 07:12:31;;;;;;;59.73;3.27;;;;;;;;;;5093814;28;20470;-68
2022/07/26 07:14:58;;;;;;;61.70;3.37;;;;;;;;;;5093930;28;20456;-68
2022/07/26 07:17:25;;;;;;;59.07;2.87;;;;;;;;;;5094070;28;20452;-67
2022/07/26 07:19:53;;;;;;;61.03;2.80;;;;;;;;;;5093645;28;20562;-67
2022/07/26 07:22:20;;;;;;;60.40;3.30;;;;;;;;;;5094389;28;20497;-68
2022/07/26 07:24:48;;;;;;;60.70;3.40;;;;;;;;;;5094289;28;20443;-68
2022/07/26 07:27:15;;;;;;;58.97;3.20;;;;;;;;;;5094154;28;20454;-67
2022/07/26 07:29:43;;;;;;;59.17;2.80;;;;;;;;;;5093695;28;20471;-68
2022/07/26 07:32:11;;;;;;;59.87;3.60;;;;;;;;;;5093942;28;20444;-68
2022/07/26 07:34:38;;;;;;;59.20;3.00;;;;;;;;;;5091997;28;20457;-67
2022/07/26 07:37:05;;;;;;;58.40;2.87;;;;;;;;;;5093898;28;20628;-68
2022/07/26 07:39:32;;;;;;;59.00;2.90;;;;;;;;;;5093767;28;20532;-68
2022/07/26 07:42:01;;;;;;;60.37;3.30;;;;;;;;;;5093559;28;21016;-68
2022/07/26 07:44:28;;;;;;;58.90;2.90;;;;;;;;;;5093841;28;20464;-68
2022/07/26 07:46:55;;;;;;;58.53;2.80;;;;;;;;;;5093788;28;20448;-68
2022/07/26 07:49:22;;;;;;;58.50;2.80;;;;;;;;;;5093063;28;20452;-67
2022/07/26 07:51:49;;;;;;;58.20;2.73;;;;;;;;;;5093831;28;20533;-68
2022/07/26 07:54:17;;;;;;;59.37;2.93;;;;;;;;;;5093614;28;20452;-68
2022/07/26 07:56:44;;;;;;;60.60;3.20;;;;;;;;;;5093478;28;20453;-68
2022/07/26 07:59:13;;;;;;;58.90;2.83;;;;;;;;;;5092924;28;20458;-68
2022/07/26 08:01:40;;;;;;;58.50;2.60;;;;;;;;;;5093051;28;20487;-67
2022/07/26 08:04:07;;;;;;;58.97;2.67;;;;;;;;;;5093778;28;20455;-68
2022/07/26 08:06:34;;;;;;;61.00;3.07;;;;;;;;;;5092087;28;20492;-68
2022/07/26 08:09:01;;;;;;;58.67;2.67;;;;;;;;;;5072583;28;20457;-68
2022/07/26 08:11:28;;;;;;;58.80;2.57;;;;;;;;;;5073004;28;20472;-67
2022/07/26 08:13:55;;;;;;;62.30;2.73;;;;;;;;;;5073043;28;20505;-67
2022/07/26 08:16:24;;;;;;;59.67;2.73;;;;;;;;;;5072263;28;20960;-67
2022/07/26 08:18:51;;;;;;;60.97;2.50;;;;;;;;;;5072793;28;20454;-68
2022/07/26 08:21:18;;;;;;;58.23;2.90;;;;;;;;;;5072520;28;21012;-67
2022/07/26 08:23:45;;;;;;;58.03;2.40;;;;;;;;;;5071918;28;20451;-68
2022/07/26 08:26:12;;;;;;;58.50;2.30;;;;;;;;;;5072772;28;20465;-68
2022/07/26 08:28:39;;;;;;;60.67;3.07;;;;;;;;;;5072173;28;20450;-67
2022/07/26 08:31:07;;;;;;;58.60;2.47;;;;;;;;;;5072714;28;20470;-67
2022/07/26 08:33:35;;;;;;;58.60;2.53;;;;;;;;;;5072342;28;20450;-68
2022/07/26 08:36:02;;;;;;;58.90;2.40;;;;;;;;;;5072279;28;20447;-68
2022/07/26 08:38:30;;;;;;;58.13;2.37;;;;;;;;;;5072373;28;20542;-68
2022/07/26 08:40:57;;;;;;;58.10;2.87;;;;;;;;;;5087381;28;20568;-68
2022/07/26 08:43:24;;;;;;;59.97;2.60;;;;;;;;;;5092447;28;20450;-68
2022/07/26 08:45:51;;;;;;;59.10;2.63;;;;;;;;;;5092550;28;20958;-68
2022/07/26 08:48:18;;;;;;;59.37;3.07;;;;;;;;;;5092543;28;20450;-68
2022/07/26 08:50:48;;;;;;;58.20;2.57;;;;;;;;;;5092301;28;20469;-68
2022/07/26 08:53:16;;;;;;;58.07;2.60;;;;;;;;;;5092476;28;20442;-68
2022/07/26 08:55:43;;;;;;;58.90;2.90;;;;;;;;;;5092165;28;20456;-68
2022/07/26 08:58:10;;;;;;;57.97;2.53;;;;;;;;;;5091944;28;20461;-68
2022/07/26 09:00:37;;;;;;;58.30;2.60;;;;;;;;;;5091808;28;20470;-68
2022/07/26 09:03:04;;;;;;;59.10;2.60;;;;;;;;;;5092359;28;20856;-68
2022/07/26 09:05:33;;;;;;;58.07;2.60;;;;;;;;;;5092513;28;20449;-68
2022/07/26 09:08:02;;;;;;;59.97;2.80;;;;;;;;;;5092099;28;20453;-68
2022/07/26 09:10:34;;;;;;;58.60;2.63;;;;;;;;;;5091605;28;20470;-68
2022/07/26 09:13:01;;;;;;;58.70;2.80;;;;;;;;;;5090429;28;20446;-68
2022/07/26 09:15:28;;;;;;;59.37;3.10;;;;;;;;;;5092159;28;20476;-67
2022/07/26 09:17:57;;;;;;;58.40;2.80;;;;;;;;;;5091527;28;20449;-68
2022/07/26 09:20:25;;;;;;;58.30;2.60;;;;;;;;;;5091580;28;20501;-68
2022/07/26 09:22:59;;;;;;;58.40;2.60;;;;;;;;;;5091537;28;21033;-67
2022/07/26 09:25:29;;;;;;;58.37;2.63;;;;;;;;;;5091899;28;20807;-68
2022/07/26 09:27:57;;;;;;;58.40;2.47;;;;;;;;;;5092159;28;20538;-68
2022/07/26 09:30:24;;;;;;;58.27;2.60;;;;;;;;;;5091614;28;20510;-68
2022/07/26 09:32:59;;;;;;;59.10;2.53;;;;;;;;;;5092066;28;20439;-68
2022/07/26 09:35:26;;;;;;;59.97;2.93;;;;;;;;;;5091529;28;20442;-68
2022/07/26 09:37:53;;;;;;;58.97;2.70;;;;;;;;;;5091599;28;20450;-68
2022/07/26 09:40:20;;;;;;;61.87;2.60;;;;;;;;;;5091493;28;20477;-68
2022/07/26 09:42:55;;;;;;;58.30;2.40;;;;;;;;;;5091214;28;20855;-68
2022/07/26 09:45:23;;;;;;;60.87;2.63;;;;;;;;;;5072053;28;20520;-68
2022/07/26 09:47:50;;;;;;;58.67;2.30;;;;;;;;;;5071374;28;20445;-68
2022/07/26 09:50:18;;;;;;;58.07;2.40;;;;;;;;;;5071111;28;20460;-68
2022/07/26 09:52:58;;;;;;;58.40;2.50;;;;;;;;;;5071336;28;21012;-68
2022/07/26 09:55:25;;;;;;;58.47;2.57;;;;;;;;;;5071394;28;20948;-68
2022/07/26 09:57:53;;;;;;;58.57;2.60;;;;;;;;;;5070795;28;20513;-68
2022/07/26 10:00:24;;;;;;;57.97;2.20;;;;;;;;;;5070707;28;20566;-68
2022/07/26 10:02:51;;;;;;;58.13;2.40;;;;;;;;;;5071426;28;20478;-68
2022/07/26 10:05:20;;;;;;;58.00;2.47;;;;;;;;;;5071691;28;20479;-68
2022/07/26 10:07:47;;;;;;;58.40;2.80;;;;;;;;;;5071399;28;20491;-67
2022/07/26 10:10:15;;;;;;;58.13;2.70;;;;;;;;;;5071444;28;20478;-69
2022/07/26 10:12:45;;;;;;;59.33;2.30;;;;;;;;;;5072040;28;20448;-68
2022/07/26 10:15:27;;;;;;;58.87;2.77;;;;;;;;;;5071445;28;20450;-69
2022/07/26 10:17:55;;;;;;;57.57;2.30;;;;;;;;;;5071001;28;21028;-68
2022/07/26 10:20:37;;;;;;;58.47;2.57;;;;;;;;;;5074206;28;20470;-68
2022/07/26 10:23:05;;;;;;;57.93;2.47;;;;;;;;;;5088728;28;20482;-70
2022/07/26 10:25:48;;;;;;;58.40;2.50;;;;;;;;;;5091072;28;20541;-68
2022/07/26 10:28:25;;;;;;;60.40;2.83;;;;;;;;;;5091593;28;21049;-69
2022/07/26 10:30:53;;;;;;;58.60;2.37;;;;;;;;;;5090862;28;20459;-68
2022/07/26 10:33:24;;;;;;;57.63;2.23;;;;;;;;;;5090983;28;20533;-69
2022/07/26 10:35:51;;;;;;;57.67;2.10;;;;;;;;;;5091326;28;20455;-69
2022/07/26 10:38:28;;;;;;;57.80;2.47;;;;;;;;;;5091123;28;20537;-67
2022/07/26 10:40:57;;;;;;;58.00;2.53;;;;;;;;;;5090681;28;20462;-67
2022/07/26 10:43:24;;;;;;;57.33;2.20;;;;;;;;;;5090899;28;20485;-67
2022/07/26 10:46:14;;;;;;;57.27;2.20;;;;;;;;;;5091481;28;20538;-67
2022/07/26 10:51:35;;;;;;;57.50;1.87;;;;;;;;;;5129876;27;20526;-67
2022/07/26 10:54:02;;;;;;;57.50;2.03;;;;;;;;;;5127097;27;20543;-67
2022/07/26 10:56:29;;;;;;;57.07;2.10;;;;;;;;;;5129621;27;20531;-67
2022/07/26 10:58:57;;;;;;;58.13;2.37;;;;;;;;;;5129466;27;20543;-67
2022/07/26 11:01:32;;;;;;;58.73;2.30;;;;;;;;;;5129764;27;20543;-67
2022/07/26 11:03:59;;;;;;;58.17;1.97;;;;;;;;;;5129639;27;20443;-66
2022/07/26 11:06:27;;;;;;;57.43;2.00;;;;;;;;;;5129700;27;20812;-67
2022/07/26 11:08:56;;;;;;;57.30;2.20;;;;;;;;;;5129430;27;20441;-67
2022/07/26 11:11:30;;;;;;;57.23;2.03;;;;;;;;;;5129171;27;20480;-67
2022/07/26 11:14:08;;;;;;;61.03;2.20;;;;;;;;;;5129645;27;20444;-67
2022/07/26 11:16:39;;;;;;;57.10;1.90;;;;;;;;;;5129656;27;20863;-67
2022/07/26 11:19:16;;;;;;;56.93;1.80;;;;;;;;;;5129117;27;20440;-69
2022/07/26 11:21:44;;;;;;;57.00;1.87;;;;;;;;;;5129107;27;20476;-69
2022/07/26 11:24:13;;;;;;;57.17;2.10;;;;;;;;;;5127500;27;20524;-69
2022/07/26 11:26:43;;;;;;;57.80;1.83;;;;;;;;;;5129462;27;20441;-69
2022/07/26 11:29:11;;;;;;;59.63;2.10;;;;;;;;;;5128901;27;21016;-67
2022/07/26 11:31:39;;;;;;;57.27;2.00;;;;;;;;;;5128979;27;20516;-67
2022/07/26 11:34:08;;;;;;;57.17;1.90;;;;;;;;;;5128858;27;20476;-67
2022/07/26 11:36:35;;;;;;;56.90;2.00;;;;;;;;;;5129362;27;20453;-67
2022/07/26 11:39:03;;;;;;;57.03;2.20;;;;;;;;;;5128889;27;20452;-67
2022/07/26 11:41:32;;;;;;;57.07;2.00;;;;;;;;;;5128920;27;20745;-67
2022/07/26 11:44:00;;;;;;;57.40;2.20;;;;;;;;;;5128561;27;20440;-67
2022/07/26 11:46:37;;;;;;;57.87;1.90;;;;;;;;;;5129451;27;20460;-67
2022/07/26 11:49:06;;;;;;;56.80;1.80;;;;;;;;;;5128546;27;20449;-66
2022/07/26 11:51:33;;;;;;;57.27;1.90;;;;;;;;;;5128778;27;20507;-67
2022/07/26 11:54:03;;;;;;;57.30;2.23;;;;;;;;;;5128828;27;20447;-67
2022/07/26 11:56:31;;;;;;;56.87;1.93;;;;;;;;;;5128867;27;20441;-67
2022/07/26 11:59:00;;;;;;;57.23;1.90;;;;;;;;;;5111805;27;20464;-67
2022/07/26 12:01:27;;;;;;;57.00;2.17;;;;;;;;;;5102507;28;20462;-67
2022/07/26 12:03:56;;;;;;;57.03;2.07;;;;;;;;;;5094105;28;20442;-67
2022/07/26 12:06:24;;;;;;;57.30;1.93;;;;;;;;;;5094801;28;20443;-66
2022/07/26 12:08:52;;;;;;;56.80;1.80;;;;;;;;;;5094276;28;20896;-67
2022/07/26 12:11:20;;;;;;;57.00;1.90;;;;;;;;;;5094213;28;20522;-67
2022/07/26 12:13:53;;;;;;;56.87;1.80;;;;;;;;;;5094182;28;20464;-67
2022/07/26 12:16:41;;;;;;;56.70;1.70;;;;;;;;;;5094426;28;20447;-67
2022/07/26 12:19:09;;;;;;;57.30;1.70;;;;;;;;;;5093971;28;20450;-67
2022/07/26 12:21:41;;;;;;;56.90;1.80;;;;;;;;;;5094170;28;20656;-67
2022/07/26 12:24:09;;;;;;;56.87;2.00;;;;;;;;;;5093764;28;20442;-67
2022/07/26 12:26:36;;;;;;;56.80;1.70;;;;;;;;;;5094097;28;20446;-67
2022/07/26 12:32:02;;;;;;;58.70;1.97;;;;;;;;;;5114317;28;20553;-67
2022/07/26 12:34:29;;;;;;;59.53;2.00;;;;;;;;;;5114112;28;20449;-67
2022/07/26 12:37:06;;;;;;;56.97;2.00;;;;;;;;;;5114300;28;20473;-67
2022/07/26 12:39:33;;;;;;;57.00;1.93;;;;;;;;;;5113933;28;20537;-67
2022/07/26 12:42:00;;;;;;;56.70;1.80;;;;;;;;;;5114211;28;20492;-68
2022/07/26 12:44:27;;;;;;;57.00;1.87;;;;;;;;;;5113713;28;20447;-67
2022/07/26 12:46:54;;;;;;;56.93;1.60;;;;;;;;;;5114015;28;20445;-67
2022/07/26 12:49:23;;;;;;;57.47;1.90;;;;;;;;;;5113395;28;20449;-67
2022/07/26 12:51:50;;;;;;;57.20;1.87;;;;;;;;;;5113957;28;20584;-67
2022/07/26 12:54:17;;;;;;;56.47;1.53;;;;;;;;;;5114159;28;20521;-69
2022/07/26 12:56:44;;;;;;;56.67;1.73;;;;;;;;;;5113811;28;20482;-67
2022/07/26 12:59:11;;;;;;;56.40;1.67;;;;;;;;;;5113334;28;20453;-67
2022/07/26 13:01:39;;;;;;;56.60;1.80;;;;;;;;;;5111755;28;20465;-67
2022/07/26 13:04:06;;;;;;;56.70;1.90;;;;;;;;;;5113393;28;20952;-67
2022/07/26 13:06:34;;;;;;;56.70;1.70;;;;;;;;;;5113527;28;20533;-67
2022/07/26 13:09:01;;;;;;;56.90;2.00;;;;;;;;;;5113412;28;20452;-67
2022/07/26 13:11:29;;;;;;;57.20;1.70;;;;;;;;;;5113588;28;20572;-67
2022/07/26 13:13:56;;;;;;;57.00;1.90;;;;;;;;;;5112573;28;20456;-67
2022/07/26 13:16:23;;;;;;;56.90;1.80;;;;;;;;;;5113124;28;20450;-66
2022/07/26 13:18:50;;;;;;;58.23;2.30;;;;;;;;;;5112989;28;20540;-69
2022/07/26 13:21:17;;;;;;;57.10;2.10;;;;;;;;;;5113630;28;20478;-69
2022/07/26 13:23:46;;;;;;;56.97;2.10;;;;;;;;;;5113277;28;20533;-67
2022/07/26 13:26:13;;;;;;;56.60;1.90;;;;;;;;;;5113277;28;20537;-67
2022/07/26 13:28:40;;;;;;;56.50;1.73;;;;;;;;;;5112843;28;20530;-67
2022/07/26 13:31:07;;;;;;;57.07;1.80;;;;;;;;;;5113250;28;20573;-67
2022/07/26 13:33:36;;;;;;;57.27;2.00;;;;;;;;;;5094995;28;20542;-67
2022/07/26 13:36:04;;;;;;;56.47;1.57;;;;;;;;;;5092512;28;20442;-67
2022/07/26 13:38:32;;;;;;;57.00;2.10;;;;;;;;;;5092651;28;20562;-67
2022/07/26 13:41:01;;;;;;;56.67;2.00;;;;;;;;;;5092462;28;20474;-67
2022/07/26 13:43:29;;;;;;;57.20;2.00;;;;;;;;;;5092410;28;20450;-67
2022/07/26 13:45:56;;;;;;;56.70;1.70;;;;;;;;;;5092333;28;20500;-67
2022/07/26 13:48:24;;;;;;;56.70;1.80;;;;;;;;;;5092414;28;20939;-67
2022/07/26 13:50:51;;;;;;;58.17;2.10;;;;;;;;;;5092031;28;21081;-67
2022/07/26 13:53:18;;;;;;;56.77;1.90;;;;;;;;;;5092345;28;20494;-67
2022/07/26 13:55:45;;;;;;;57.40;2.03;;;;;;;;;;5092205;28;20531;-67
2022/07/26 13:58:14;;;;;;;58.33;2.30;;;;;;;;;;5092427;28;20525;-67
2022/07/26 14:00:42;;;;;;;56.70;2.10;;;;;;;;;;5092128;28;20502;-67
2022/07/26 14:03:09;;;;;;;58.13;2.17;;;;;;;;;;5091403;28;20478;-67
2022/07/26 14:05:36;;;;;;;57.27;1.77;;;;;;;;;;5091953;28;20456;-67
2022/07/26 14:08:03;;;;;;;57.10;1.80;;;;;;;;;;5092122;28;20482;-67
2022/07/26 14:10:31;;;;;;;56.97;2.00;;;;;;;;;;5091678;28;20482;-66
2022/07/26 14:12:58;;;;;;;58.43;2.10;;;;;;;;;;5092229;28;20449;-67
2022/07/26 14:15:27;;;;;;;57.37;2.07;;;;;;;;;;5092127;28;20885;-66
2022/07/26 14:17:54;;;;;;;57.07;1.97;;;;;;;;;;5091943;28;20446;-66
2022/07/26 14:20:21;;;;;;;59.63;2.43;;;;;;;;;;5091604;28;20876;-67
2022/07/26 14:22:52;;;;;;;58.10;2.13;;;;;;;;;;5091872;28;20451;-66
2022/07/26 14:25:19;;;;;;;58.97;2.20;;;;;;;;;;5091319;28;20450;-67
2022/07/26 14:27:46;;;;;;;57.00;1.90;;;;;;;;;;5092221;28;20783;-67
2022/07/26 14:30:14;;;;;;;56.93;1.80;;;;;;;;;;5091691;28;20473;-66
2022/07/26 14:32:42;;;;;;;57.40;1.90;;;;;;;;;;5091848;28;20450;-67
2022/07/26 14:35:10;;;;;;;59.00;2.00;;;;;;;;;;5090506;28;20446;-67
2022/07/26 14:37:37;;;;;;;56.80;1.73;;;;;;;;;;5091756;28;20938;-67
2022/07/26 14:40:06;;;;;;;57.00;1.83;;;;;;;;;;5091289;28;20494;-67
2022/07/26 14:42:33;;;;;;;56.70;2.00;;;;;;;;;;5091821;28;20446;-67
2022/07/26 14:45:00;;;;;;;57.70;2.00;;;;;;;;;;5091325;28;20452;-69